Harvey, AR

12:16 AM CST on February 28, 2015 (GMT -0600)
Booneville Municipal Airport | Change Station
CLOSE
Current Station
Personal Weather Station
Location: Booneville, AR
Elevation: 460 ft
Nearby Weather Stations
Active Advisory: Winter Weather Advisory Active Notice: Local Storm Report

Elev 460 ft 35.15 °N, 93.86 °W | Updated 45 minutes ago

Overcast
Overcast
22.7 °F
Feels Like 15 °F
N
6.0
Wind Variable Wind from East
Gusts 10.0 mph

Today
High -- | Low -- °F
--% Chance of Precip.
Yesterday
High -- | Low -- °F
Precip. -- in
6:45 AM 6:09 PM
Waxing Gibbous, 75% visible
Pressure 30.52 in
Visibility 10.0 miles
Clouds Overcast 6000 ft
Windchill 15 °F
Dew Point 19 °F
Humidity 87%
Rainfall 0.00 in
Snow Depth Not available.
UV 0 out of 12
Pollen 4.30 out of 12
Air Quality Not available.
Flu Activity Not available.
METAR KMWT 280553Z AUTO 06003KT 10SM OVC060 M04/M08 A3047 RMK AO2 SLP334 60000 T10391083 11039 21044 410111067 58004

More Conditions Fewer Conditions

Pressure 30.52 in
Visibility 10.0 miles
Clouds Overcast 6000 ft
Windchill 15 °F
Dew Point 19 °F
Humidity 87%
Rainfall 0.00 in
Snow Depth Not available.
UV 0 out of 12
Pollen 4.30 out of 12
Air Quality Not available.
Flu Activity Not available.
METAR KMWT 280553Z AUTO 06003KT 10SM OVC060 M04/M08 A3047 RMK AO2 SLP334 60000 T10391083 11039 21044 410111067 58004

More Conditions Fewer Conditions

10-Day Weather Forecast

Almanac

Astronomy

Feb. 28, 2015 Rise Set
Actual Time
Civil Twilight
Nautical Twilight
Astronomical Twilight
Moon
Length of Visible Light
Length of Day
Tomorrow will be .
, % of the Moon is Illuminated

Today's Extremes

State Highs State Lows

Community

WunderPhotos

Upload Photos

1,800,976 photos uploaded!

WunderBlogs® & News

Nearby

Air Quality

  Air Quality AQ Index Pollutant
Not available.

Snow Depth

Station Depth Elevation

Earthquake Activity

City Distance Mag. Time & Date
Minimum magnitude displayed is 2.5.

Coastal Water Temperatures

Place Temperature

Nearby Weather Stations

Winter Weather Advisory
Statement as of 11:18 PM CST on February 27, 2015

... Winter Weather Advisory in effect until 4 am CST Saturday...

The National Weather Service in Little Rock has issued a Winter
Weather Advisory for snow... which is in effect until 4 am CST
Saturday.

* Event... light snow accumulations of an inch or two will be
possible.

* Areas affected... western and northern Arkansas... generally west
of a line from Mount Ida... to Russellville... to Marshall... to
Mountain Home. This includes the cities of Russellville and
Mountain Home.

* Timing... the snow will continue through the overnight hours.

* Impact... snow will continue to cause travel issues on area
roadways.

Precautionary/preparedness actions...

A Winter Weather Advisory means that periods of snow... sleet... or
freezing rain will cause travel difficulties. Be prepared for
slippery roads and limited visibilities... and use caution while
driving.



57